sensor_id;sensor_type;location;lat;lon;timestamp;P1;durP1;ratioP1;P2;durP2;ratioP2
19808;SDS011;48538;32.784;-96.802;2023-05-20T00:00:46;5.25;;;2.65;;
19808;SDS011;48538;32.784;-96.802;2023-05-20T00:03:13;5.35;;;3.20;;
19808;SDS011;48538;32.784;-96.802;2023-05-20T00:05:40;4.35;;;2.90;;
19808;SDS011;48538;32.784;-96.802;2023-05-20T00:08:07;3.25;;;2.60;;
19808;SDS011;48538;32.784;-96.802;2023-05-20T00:10:35;4.63;;;2.65;;
19808;SDS011;48538;32.784;-96.802;2023-05-20T00:13:01;4.65;;;2.72;;
19808;SDS011;48538;32.784;-96.802;2023-05-20T00:15:28;6.35;;;2.80;;
19808;SDS011;48538;32.784;-96.802;2023-05-20T00:17:55;6.07;;;2.58;;
19808;SDS011;48538;32.784;-96.802;2023-05-20T00:20:21;6.43;;;2.70;;
19808;SDS011;48538;32.784;-96.802;2023-05-20T00:22:47;8.85;;;3.10;;
19808;SDS011;48538;32.784;-96.802;2023-05-20T00:25:14;9.20;;;2.63;;
19808;SDS011;48538;32.784;-96.802;2023-05-20T00:27:40;5.75;;;3.10;;
19808;SDS011;48538;32.784;-96.802;2023-05-20T00:30:07;4.60;;;2.97;;
19808;SDS011;48538;32.784;-96.802;2023-05-20T00:32:34;6.65;;;3.92;;
19808;SDS011;48538;32.784;-96.802;2023-05-20T00:35:00;5.25;;;2.88;;
19808;SDS011;48538;32.784;-96.802;2023-05-20T00:37:27;6.63;;;3.45;;
19808;SDS011;48538;32.784;-96.802;2023-05-20T00:39:53;6.22;;;3.22;;
19808;SDS011;48538;32.784;-96.802;2023-05-20T00:42:20;6.70;;;2.80;;
19808;SDS011;48538;32.784;-96.802;2023-05-20T00:44:51;7.03;;;2.97;;
19808;SDS011;48538;32.784;-96.802;2023-05-20T00:47:20;6.28;;;3.38;;
19808;SDS011;48538;32.784;-96.802;2023-05-20T00:49:51;6.68;;;3.60;;
19808;SDS011;48538;32.784;-96.802;2023-05-20T00:52:17;8.85;;;3.80;;
19808;SDS011;48538;32.784;-96.802;2023-05-20T00:54:44;10.75;;;3.67;;
19808;SDS011;48538;32.784;-96.802;2023-05-20T00:57:11;5.05;;;3.20;;
19808;SDS011;48538;32.784;-96.802;2023-05-20T00:59:38;10.65;;;4.38;;
19808;SDS011;48538;32.784;-96.802;2023-05-20T01:02:05;8.88;;;3.63;;
19808;SDS011;48538;32.784;-96.802;2023-05-20T01:04:32;6.68;;;3.00;;
19808;SDS011;48538;32.784;-96.802;2023-05-20T01:06:59;4.15;;;3.08;;
19808;SDS011;48538;32.784;-96.802;2023-05-20T01:09:29;7.13;;;3.33;;
19808;SDS011;48538;32.784;-96.802;2023-05-20T01:12:08;6.93;;;3.95;;
19808;SDS011;48538;32.784;-96.802;2023-05-20T01:14:52;6.88;;;3.25;;
19808;SDS011;48538;32.784;-96.802;2023-05-20T01:17:20;8.88;;;3.67;;
19808;SDS011;48538;32.784;-96.802;2023-05-20T01:19:51;5.35;;;3.17;;
19808;SDS011;48538;32.784;-96.802;2023-05-20T01:22:26;7.43;;;2.90;;
19808;SDS011;48538;32.784;-96.802;2023-05-20T01:24:53;3.33;;;2.50;;
19808;SDS011;48538;32.784;-96.802;2023-05-20T01:27:20;13.35;;;3.85;;
19808;SDS011;48538;32.784;-96.802;2023-05-20T01:29:48;6.10;;;3.03;;
19808;SDS011;48538;32.784;-96.802;2023-05-20T01:32:21;6.63;;;3.97;;
19808;SDS011;48538;32.784;-96.802;2023-05-20T01:34:51;7.07;;;3.60;;
19808;SDS011;48538;32.784;-96.802;2023-05-20T01:37:20;6.65;;;3.30;;
19808;SDS011;48538;32.784;-96.802;2023-05-20T01:39:49;5.93;;;3.58;;
19808;SDS011;48538;32.784;-96.802;2023-05-20T01:42:17;8.30;;;3.92;;
19808;SDS011;48538;32.784;-96.802;2023-05-20T01:44:45;5.03;;;2.60;;
19808;SDS011;48538;32.784;-96.802;2023-05-20T01:47:11;6.57;;;2.60;;
19808;SDS011;48538;32.784;-96.802;2023-05-20T01:49:38;4.75;;;2.45;;
19808;SDS011;48538;32.784;-96.802;2023-05-20T01:52:04;2.45;;;1.83;;
19808;SDS011;48538;32.784;-96.802;2023-05-20T01:54:30;4.00;;;2.10;;
19808;SDS011;48538;32.784;-96.802;2023-05-20T01:56:57;6.28;;;3.40;;
19808;SDS011;48538;32.784;-96.802;2023-05-20T01:59:23;6.43;;;2.97;;
19808;SDS011;48538;32.784;-96.802;2023-05-20T02:01:49;7.38;;;3.45;;
19808;SDS011;48538;32.784;-96.802;2023-05-20T02:04:16;5.45;;;3.20;;
19808;SDS011;48538;32.784;-96.802;2023-05-20T02:06:43;3.88;;;2.90;;
19808;SDS011;48538;32.784;-96.802;2023-05-20T02:09:10;6.47;;;2.90;;
19808;SDS011;48538;32.784;-96.802;2023-05-20T02:11:36;5.65;;;2.38;;
19808;SDS011;48538;32.784;-96.802;2023-05-20T02:14:02;5.65;;;2.78;;
19808;SDS011;48538;32.784;-96.802;2023-05-20T02:16:29;4.43;;;2.88;;
19808;SDS011;48538;32.784;-96.802;2023-05-20T02:18:55;5.65;;;2.80;;
19808;SDS011;48538;32.784;-96.802;2023-05-20T02:21:22;3.65;;;2.60;;
19808;SDS011;48538;32.784;-96.802;2023-05-20T02:23:52;5.35;;;2.53;;
19808;SDS011;48538;32.784;-96.802;2023-05-20T02:26:18;3.80;;;2.83;;
19808;SDS011;48538;32.784;-96.802;2023-05-20T02:28:44;7.25;;;3.17;;
19808;SDS011;48538;32.784;-96.802;2023-05-20T02:31:14;6.95;;;3.38;;
19808;SDS011;48538;32.784;-96.802;2023-05-20T02:33:41;5.60;;;2.63;;
19808;SDS011;48538;32.784;-96.802;2023-05-20T02:36:07;5.10;;;3.10;;
19808;SDS011;48538;32.784;-96.802;2023-05-20T02:38:34;7.97;;;3.33;;
19808;SDS011;48538;32.784;-96.802;2023-05-20T02:41:00;5.20;;;2.90;;
19808;SDS011;48538;32.784;-96.802;2023-05-20T02:43:29;4.97;;;2.47;;
19808;SDS011;48538;32.784;-96.802;2023-05-20T02:45:56;6.65;;;3.38;;
19808;SDS011;48538;32.784;-96.802;2023-05-20T02:48:22;6.15;;;2.80;;
19808;SDS011;48538;32.784;-96.802;2023-05-20T02:50:48;2.75;;;2.40;;
19808;SDS011;48538;32.784;-96.802;2023-05-20T02:53:15;4.97;;;2.85;;
19808;SDS011;48538;32.784;-96.802;2023-05-20T02:55:41;4.07;;;2.88;;
19808;SDS011;48538;32.784;-96.802;2023-05-20T02:58:09;3.00;;;2.58;;
19808;SDS011;48538;32.784;-96.802;2023-05-20T03:00:37;5.20;;;3.13;;
19808;SDS011;48538;32.784;-96.802;2023-05-20T03:03:08;3.78;;;2.83;;
19808;SDS011;48538;32.784;-96.802;2023-05-20T03:05:35;5.00;;;2.85;;
19808;SDS011;48538;32.784;-96.802;2023-05-20T03:08:05;6.82;;;3.78;;
19808;SDS011;48538;32.784;-96.802;2023-05-20T03:10:34;9.93;;;3.45;;
19808;SDS011;48538;32.784;-96.802;2023-05-20T03:13:01;5.20;;;3.33;;
19808;SDS011;48538;32.784;-96.802;2023-05-20T03:15:33;8.43;;;3.63;;
19808;SDS011;48538;32.784;-96.802;2023-05-20T03:18:00;6.25;;;3.40;;
19808;SDS011;48538;32.784;-96.802;2023-05-20T03:20:26;6.70;;;3.50;;
19808;SDS011;48538;32.784;-96.802;2023-05-20T03:23:02;6.75;;;3.33;;
19808;SDS011;48538;32.784;-96.802;2023-05-20T03:25:29;6.82;;;3.35;;
19808;SDS011;48538;32.784;-96.802;2023-05-20T03:27:55;5.63;;;3.90;;
19808;SDS011;48538;32.784;-96.802;2023-05-20T03:30:25;5.18;;;3.42;;
19808;SDS011;48538;32.784;-96.802;2023-05-20T03:32:52;4.20;;;3.60;;
19808;SDS011;48538;32.784;-96.802;2023-05-20T03:35:20;9.38;;;3.80;;
19808;SDS011;48538;32.784;-96.802;2023-05-20T03:37:46;7.72;;;3.58;;
19808;SDS011;48538;32.784;-96.802;2023-05-20T03:40:12;5.30;;;3.45;;
19808;SDS011;48538;32.784;-96.802;2023-05-20T03:42:39;8.68;;;3.67;;
19808;SDS011;48538;32.784;-96.802;2023-05-20T03:45:05;8.25;;;4.15;;
19808;SDS011;48538;32.784;-96.802;2023-05-20T03:47:32;5.25;;;3.50;;
19808;SDS011;48538;32.784;-96.802;2023-05-20T03:49:58;4.90;;;3.63;;
19808;SDS011;48538;32.784;-96.802;2023-05-20T03:52:25;4.85;;;3.70;;
19808;SDS011;48538;32.784;-96.802;2023-05-20T03:54:52;7.32;;;4.05;;
19808;SDS011;48538;32.784;-96.802;2023-05-20T03:57:18;11.63;;;4.40;;
19808;SDS011;48538;32.784;-96.802;2023-05-20T03:59:45;4.57;;;3.53;;
19808;SDS011;48538;32.784;-96.802;2023-05-20T04:02:11;12.25;;;4.65;;
19808;SDS011;48538;32.784;-96.802;2023-05-20T04:04:37;7.22;;;3.92;;
19808;SDS011;48538;32.784;-96.802;2023-05-20T04:07:07;8.30;;;4.10;;
19808;SDS011;48538;32.784;-96.802;2023-05-20T04:09:34;6.53;;;3.72;;
19808;SDS011;48538;32.784;-96.802;2023-05-20T04:12:01;6.97;;;3.60;;
19808;SDS011;48538;32.784;-96.802;2023-05-20T04:14:27;4.28;;;3.30;;
19808;SDS011;48538;32.784;-96.802;2023-05-20T04:16:53;5.72;;;3.85;;
19808;SDS011;48538;32.784;-96.802;2023-05-20T04:19:20;6.43;;;3.13;;
19808;SDS011;48538;32.784;-96.802;2023-05-20T04:21:48;5.75;;;3.17;;
19808;SDS011;48538;32.784;-96.802;2023-05-20T04:24:14;6.82;;;3.28;;
19808;SDS011;48538;32.784;-96.802;2023-05-20T04:26:40;4.95;;;2.90;;
19808;SDS011;48538;32.784;-96.802;2023-05-20T04:29:07;4.78;;;3.10;;
19808;SDS011;48538;32.784;-96.802;2023-05-20T04:31:33;6.63;;;3.00;;
19808;SDS011;48538;32.784;-96.802;2023-05-20T04:33:59;4.80;;;3.08;;
19808;SDS011;48538;32.784;-96.802;2023-05-20T04:36:26;5.50;;;3.13;;
19808;SDS011;48538;32.784;-96.802;2023-05-20T04:38:53;4.30;;;3.05;;
19808;SDS011;48538;32.784;-96.802;2023-05-20T04:41:20;4.70;;;3.25;;
19808;SDS011;48538;32.784;-96.802;2023-05-20T04:43:46;4.43;;;3.20;;
19808;SDS011;48538;32.784;-96.802;2023-05-20T04:46:14;7.57;;;3.13;;
19808;SDS011;48538;32.784;-96.802;2023-05-20T04:48:40;6.40;;;3.17;;
19808;SDS011;48538;32.784;-96.802;2023-05-20T04:51:08;4.10;;;3.40;;
19808;SDS011;48538;32.784;-96.802;2023-05-20T04:53:35;5.88;;;3.42;;
19808;SDS011;48538;32.784;-96.802;2023-05-20T04:56:07;5.25;;;3.40;;
19808;SDS011;48538;32.784;-96.802;2023-05-20T04:58:33;4.82;;;3.65;;
19808;SDS011;48538;32.784;-96.802;2023-05-20T05:01:00;4.75;;;3.58;;
19808;SDS011;48538;32.784;-96.802;2023-05-20T05:03:26;5.25;;;3.67;;
19808;SDS011;48538;32.784;-96.802;2023-05-20T05:05:56;6.35;;;4.25;;
19808;SDS011;48538;32.784;-96.802;2023-05-20T05:08:23;4.03;;;3.30;;
19808;SDS011;48538;32.784;-96.802;2023-05-20T05:10:51;6.18;;;4.18;;
19808;SDS011;48538;32.784;-96.802;2023-05-20T05:13:17;4.60;;;4.20;;
19808;SDS011;48538;32.784;-96.802;2023-05-20T05:15:43;7.40;;;4.05;;
19808;SDS011;48538;32.784;-96.802;2023-05-20T05:18:10;5.72;;;3.05;;
19808;SDS011;48538;32.784;-96.802;2023-05-20T05:20:36;4.00;;;3.40;;
19808;SDS011;48538;32.784;-96.802;2023-05-20T05:23:02;8.88;;;3.00;;
19808;SDS011;48538;32.784;-96.802;2023-05-20T05:25:28;8.88;;;3.03;;
19808;SDS011;48538;32.784;-96.802;2023-05-20T05:27:55;4.05;;;2.85;;
19808;SDS011;48538;32.784;-96.802;2023-05-20T05:30:21;6.25;;;3.22;;
19808;SDS011;48538;32.784;-96.802;2023-05-20T05:32:48;2.97;;;2.47;;
19808;SDS011;48538;32.784;-96.802;2023-05-20T05:35:14;5.63;;;2.95;;
19808;SDS011;48538;32.784;-96.802;2023-05-20T05:37:40;5.25;;;3.13;;
19808;SDS011;48538;32.784;-96.802;2023-05-20T05:40:07;4.07;;;2.88;;
19808;SDS011;48538;32.784;-96.802;2023-05-20T05:42:33;5.15;;;2.40;;
19808;SDS011;48538;32.784;-96.802;2023-05-20T05:45:00;5.28;;;3.03;;
19808;SDS011;48538;32.784;-96.802;2023-05-20T05:47:29;10.50;;;2.78;;
19808;SDS011;48538;32.784;-96.802;2023-05-20T05:49:56;5.32;;;2.65;;
19808;SDS011;48538;32.784;-96.802;2023-05-20T05:52:25;4.20;;;3.05;;
19808;SDS011;48538;32.784;-96.802;2023-05-20T05:54:52;4.07;;;3.00;;
19808;SDS011;48538;32.784;-96.802;2023-05-20T05:57:18;3.95;;;2.90;;
19808;SDS011;48538;32.784;-96.802;2023-05-20T05:59:45;3.03;;;2.65;;
19808;SDS011;48538;32.784;-96.802;2023-05-20T06:02:11;3.30;;;3.00;;
19808;SDS011;48538;32.784;-96.802;2023-05-20T06:04:38;6.20;;;2.78;;
19808;SDS011;48538;32.784;-96.802;2023-05-20T06:07:05;6.05;;;3.67;;
19808;SDS011;48538;32.784;-96.802;2023-05-20T06:09:31;11.82;;;3.45;;
19808;SDS011;48538;32.784;-96.802;2023-05-20T06:11:58;4.93;;;2.88;;
19808;SDS011;48538;32.784;-96.802;2023-05-20T06:14:24;4.80;;;3.25;;
19808;SDS011;48538;32.784;-96.802;2023-05-20T06:16:51;3.63;;;3.33;;
19808;SDS011;48538;32.784;-96.802;2023-05-20T06:19:17;6.38;;;3.40;;
19808;SDS011;48538;32.784;-96.802;2023-05-20T06:21:43;4.35;;;3.58;;
19808;SDS011;48538;32.784;-96.802;2023-05-20T06:24:09;9.15;;;3.58;;
19808;SDS011;48538;32.784;-96.802;2023-05-20T06:26:36;5.30;;;3.22;;
19808;SDS011;48538;32.784;-96.802;2023-05-20T06:29:02;6.88;;;3.58;;
19808;SDS011;48538;32.784;-96.802;2023-05-20T06:31:28;4.78;;;3.97;;
19808;SDS011;48538;32.784;-96.802;2023-05-20T06:33:55;4.47;;;4.03;;
19808;SDS011;48538;32.784;-96.802;2023-05-20T06:36:21;4.35;;;3.80;;
19808;SDS011;48538;32.784;-96.802;2023-05-20T06:38:47;8.02;;;4.15;;
19808;SDS011;48538;32.784;-96.802;2023-05-20T06:41:14;6.45;;;4.22;;
19808;SDS011;48538;32.784;-96.802;2023-05-20T06:43:40;5.20;;;4.40;;
19808;SDS011;48538;32.784;-96.802;2023-05-20T06:46:06;4.28;;;3.85;;
19808;SDS011;48538;32.784;-96.802;2023-05-20T06:48:33;6.65;;;4.93;;
19808;SDS011;48538;32.784;-96.802;2023-05-20T06:50:59;6.63;;;4.82;;
19808;SDS011;48538;32.784;-96.802;2023-05-20T06:53:25;7.57;;;4.70;;
19808;SDS011;48538;32.784;-96.802;2023-05-20T06:55:52;7.25;;;4.93;;
19808;SDS011;48538;32.784;-96.802;2023-05-20T06:58:22;5.68;;;4.47;;
19808;SDS011;48538;32.784;-96.802;2023-05-20T07:00:48;7.65;;;4.95;;
19808;SDS011;48538;32.784;-96.802;2023-05-20T07:03:15;5.00;;;4.50;;
19808;SDS011;48538;32.784;-96.802;2023-05-20T07:05:41;5.00;;;4.45;;
19808;SDS011;48538;32.784;-96.802;2023-05-20T07:08:07;7.53;;;4.47;;
19808;SDS011;48538;32.784;-96.802;2023-05-20T07:10:34;5.63;;;4.65;;
19808;SDS011;48538;32.784;-96.802;2023-05-20T07:13:00;6.18;;;4.53;;
19808;SDS011;48538;32.784;-96.802;2023-05-20T07:15:26;6.28;;;4.95;;
19808;SDS011;48538;32.784;-96.802;2023-05-20T07:17:52;6.50;;;4.85;;
19808;SDS011;48538;32.784;-96.802;2023-05-20T07:20:19;5.03;;;4.18;;
19808;SDS011;48538;32.784;-96.802;2023-05-20T07:22:45;7.00;;;4.55;;
19808;SDS011;48538;32.784;-96.802;2023-05-20T07:25:14;5.95;;;4.82;;
19808;SDS011;48538;32.784;-96.802;2023-05-20T07:27:41;6.32;;;5.10;;
19808;SDS011;48538;32.784;-96.802;2023-05-20T07:30:08;6.00;;;4.95;;
19808;SDS011;48538;32.784;-96.802;2023-05-20T07:32:34;6.18;;;4.03;;
19808;SDS011;48538;32.784;-96.802;2023-05-20T07:35:00;5.15;;;4.65;;
19808;SDS011;48538;32.784;-96.802;2023-05-20T07:37:27;6.80;;;5.03;;
19808;SDS011;48538;32.784;-96.802;2023-05-20T07:39:53;5.75;;;4.35;;
19808;SDS011;48538;32.784;-96.802;2023-05-20T07:42:19;5.40;;;4.65;;
19808;SDS011;48538;32.784;-96.802;2023-05-20T07:44:46;5.70;;;4.55;;
19808;SDS011;48538;32.784;-96.802;2023-05-20T07:47:12;4.78;;;4.05;;
19808;SDS011;48538;32.784;-96.802;2023-05-20T07:49:39;7.13;;;4.40;;
19808;SDS011;48538;32.784;-96.802;2023-05-20T07:52:05;5.38;;;4.70;;
19808;SDS011;48538;32.784;-96.802;2023-05-20T07:54:33;6.35;;;4.53;;
19808;SDS011;48538;32.784;-96.802;2023-05-20T07:56:59;5.35;;;4.43;;
19808;SDS011;48538;32.784;-96.802;2023-05-20T07:59:26;5.90;;;5.15;;
19808;SDS011;48538;32.784;-96.802;2023-05-20T08:01:52;9.48;;;4.72;;
19808;SDS011;48538;32.784;-96.802;2023-05-20T08:04:18;6.93;;;4.65;;
19808;SDS011;48538;32.784;-96.802;2023-05-20T08:06:45;4.72;;;3.83;;
19808;SDS011;48538;32.784;-96.802;2023-05-20T08:09:11;5.07;;;4.28;;
19808;SDS011;48538;32.784;-96.802;2023-05-20T08:11:37;5.97;;;4.13;;
19808;SDS011;48538;32.784;-96.802;2023-05-20T08:14:04;5.10;;;4.57;;
19808;SDS011;48538;32.784;-96.802;2023-05-20T08:16:30;6.20;;;4.75;;
19808;SDS011;48538;32.784;-96.802;2023-05-20T08:18:56;5.00;;;4.03;;
19808;SDS011;48538;32.784;-96.802;2023-05-20T08:21:23;5.57;;;4.60;;
19808;SDS011;48538;32.784;-96.802;2023-05-20T08:23:49;5.53;;;4.20;;
19808;SDS011;48538;32.784;-96.802;2023-05-20T08:26:15;6.60;;;4.55;;
19808;SDS011;48538;32.784;-96.802;2023-05-20T08:28:41;5.70;;;4.32;;
19808;SDS011;48538;32.784;-96.802;2023-05-20T08:31:08;6.30;;;4.55;;
19808;SDS011;48538;32.784;-96.802;2023-05-20T08:33:34;5.60;;;4.30;;
19808;SDS011;48538;32.784;-96.802;2023-05-20T08:36:01;5.57;;;4.55;;
19808;SDS011;48538;32.784;-96.802;2023-05-20T08:38:27;8.30;;;5.13;;
19808;SDS011;48538;32.784;-96.802;2023-05-20T08:40:54;7.40;;;4.90;;
19808;SDS011;48538;32.784;-96.802;2023-05-20T08:43:21;7.70;;;6.10;;
19808;SDS011;48538;32.784;-96.802;2023-05-20T08:45:48;8.18;;;5.88;;
19808;SDS011;48538;32.784;-96.802;2023-05-20T08:48:17;9.50;;;5.50;;
19808;SDS011;48538;32.784;-96.802;2023-05-20T08:50:49;8.35;;;5.82;;
19808;SDS011;48538;32.784;-96.802;2023-05-20T08:53:21;6.90;;;5.60;;
19808;SDS011;48538;32.784;-96.802;2023-05-20T08:56:08;7.95;;;5.82;;
19808;SDS011;48538;32.784;-96.802;2023-05-20T08:58:35;9.95;;;6.03;;
19808;SDS011;48538;32.784;-96.802;2023-05-20T09:01:02;11.85;;;6.22;;
19808;SDS011;48538;32.784;-96.802;2023-05-20T09:03:29;8.35;;;5.32;;
19808;SDS011;48538;32.784;-96.802;2023-05-20T09:06:05;7.82;;;6.07;;
19808;SDS011;48538;32.784;-96.802;2023-05-20T09:08:33;9.75;;;5.75;;
19808;SDS011;48538;32.784;-96.802;2023-05-20T09:11:00;7.60;;;5.63;;
19808;SDS011;48538;32.784;-96.802;2023-05-20T09:13:26;6.40;;;5.18;;
19808;SDS011;48538;32.784;-96.802;2023-05-20T09:15:58;8.40;;;4.88;;
19808;SDS011;48538;32.784;-96.802;2023-05-20T09:18:25;7.47;;;5.38;;
19808;SDS011;48538;32.784;-96.802;2023-05-20T09:20:52;7.65;;;5.63;;
19808;SDS011;48538;32.784;-96.802;2023-05-20T09:23:18;8.25;;;6.38;;
19808;SDS011;48538;32.784;-96.802;2023-05-20T09:25:50;8.82;;;6.15;;
19808;SDS011;48538;32.784;-96.802;2023-05-20T09:28:22;8.68;;;6.63;;
19808;SDS011;48538;32.784;-96.802;2023-05-20T09:30:49;12.48;;;7.85;;
19808;SDS011;48538;32.784;-96.802;2023-05-20T09:33:16;11.50;;;7.75;;
19808;SDS011;48538;32.784;-96.802;2023-05-20T09:35:42;12.70;;;8.70;;
19808;SDS011;48538;32.784;-96.802;2023-05-20T09:38:08;14.85;;;9.88;;
19808;SDS011;48538;32.784;-96.802;2023-05-20T09:40:36;16.40;;;10.45;;
19808;SDS011;48538;32.784;-96.802;2023-05-20T09:43:07;16.73;;;10.20;;
19808;SDS011;48538;32.784;-96.802;2023-05-20T09:45:36;18.65;;;11.65;;
19808;SDS011;48538;32.784;-96.802;2023-05-20T09:48:03;18.08;;;11.98;;
19808;SDS011;48538;32.784;-96.802;2023-05-20T09:50:33;20.20;;;12.73;;
19808;SDS011;48538;32.784;-96.802;2023-05-20T09:53:03;19.17;;;11.63;;
19808;SDS011;48538;32.784;-96.802;2023-05-20T09:55:30;18.63;;;11.95;;
19808;SDS011;48538;32.784;-96.802;2023-05-20T09:58:00;19.42;;;12.18;;
19808;SDS011;48538;32.784;-96.802;2023-05-20T10:00:27;20.70;;;11.63;;
19808;SDS011;48538;32.784;-96.802;2023-05-20T10:02:54;21.65;;;11.70;;
19808;SDS011;48538;32.784;-96.802;2023-05-20T10:05:24;18.73;;;11.68;;
19808;SDS011;48538;32.784;-96.802;2023-05-20T10:08:00;23.50;;;12.07;;
19808;SDS011;48538;32.784;-96.802;2023-05-20T10:13:41;21.23;;;13.50;;
19808;SDS011;48538;32.784;-96.802;2023-05-20T10:16:19;24.35;;;14.80;;
19808;SDS011;48538;32.784;-96.802;2023-05-20T10:21:31;29.70;;;17.33;;
19808;SDS011;48538;32.784;-96.802;2023-05-20T10:24:07;32.53;;;18.38;;
19808;SDS011;48538;32.784;-96.802;2023-05-20T10:26:38;34.10;;;19.40;;
19808;SDS011;48538;32.784;-96.802;2023-05-20T10:29:26;37.17;;;20.30;;
19808;SDS011;48538;32.784;-96.802;2023-05-20T10:31:52;39.08;;;22.15;;
19808;SDS011;48538;32.784;-96.802;2023-05-20T10:34:19;36.78;;;20.42;;
19808;SDS011;48538;32.784;-96.802;2023-05-20T10:39:18;38.83;;;21.50;;
19808;SDS011;48538;32.784;-96.802;2023-05-20T10:41:51;38.33;;;22.05;;
19808;SDS011;48538;32.784;-96.802;2023-05-20T10:44:18;35.53;;;21.17;;
19808;SDS011;48538;32.784;-96.802;2023-05-20T10:46:44;36.22;;;21.92;;
19808;SDS011;48538;32.784;-96.802;2023-05-20T10:49:17;38.28;;;22.20;;
19808;SDS011;48538;32.784;-96.802;2023-05-20T10:51:46;38.15;;;22.20;;
19808;SDS011;48538;32.784;-96.802;2023-05-20T10:54:13;37.78;;;21.35;;
19808;SDS011;48538;32.784;-96.802;2023-05-20T10:56:49;39.03;;;23.15;;
19808;SDS011;48538;32.784;-96.802;2023-05-20T10:59:19;39.83;;;22.77;;
19808;SDS011;48538;32.784;-96.802;2023-05-20T11:01:46;40.92;;;22.83;;
19808;SDS011;48538;32.784;-96.802;2023-05-20T11:04:14;38.47;;;22.67;;
19808;SDS011;48538;32.784;-96.802;2023-05-20T11:06:48;39.75;;;23.00;;
19808;SDS011;48538;32.784;-96.802;2023-05-20T11:09:18;45.90;;;26.27;;
19808;SDS011;48538;32.784;-96.802;2023-05-20T11:11:44;46.80;;;26.63;;
19808;SDS011;48538;32.784;-96.802;2023-05-20T11:14:11;50.42;;;27.83;;
19808;SDS011;48538;32.784;-96.802;2023-05-20T11:16:41;52.47;;;28.00;;
19808;SDS011;48538;32.784;-96.802;2023-05-20T11:19:13;55.80;;;30.45;;
19808;SDS011;48538;32.784;-96.802;2023-05-20T11:21:48;60.13;;;32.58;;
19808;SDS011;48538;32.784;-96.802;2023-05-20T11:24:25;58.97;;;30.83;;
19808;SDS011;48538;32.784;-96.802;2023-05-20T11:26:56;58.30;;;31.60;;
19808;SDS011;48538;32.784;-96.802;2023-05-20T11:29:22;56.83;;;32.42;;
19808;SDS011;48538;32.784;-96.802;2023-05-20T11:31:50;58.92;;;31.20;;
19808;SDS011;48538;32.784;-96.802;2023-05-20T11:34:22;54.50;;;30.83;;
19808;SDS011;48538;32.784;-96.802;2023-05-20T11:36:55;55.85;;;29.67;;
19808;SDS011;48538;32.784;-96.802;2023-05-20T11:39:23;54.15;;;30.98;;
19808;SDS011;48538;32.784;-96.802;2023-05-20T11:41:51;54.17;;;31.40;;
19808;SDS011;48538;32.784;-96.802;2023-05-20T11:44:21;54.92;;;31.17;;
19808;SDS011;48538;32.784;-96.802;2023-05-20T11:46:47;56.80;;;32.60;;
19808;SDS011;48538;32.784;-96.802;2023-05-20T11:49:13;54.80;;;30.80;;
19808;SDS011;48538;32.784;-96.802;2023-05-20T11:51:41;50.42;;;29.00;;
19808;SDS011;48538;32.784;-96.802;2023-05-20T11:54:09;50.47;;;29.48;;
19808;SDS011;48538;32.784;-96.802;2023-05-20T11:56:36;52.30;;;29.55;;
19808;SDS011;48538;32.784;-96.802;2023-05-20T11:59:06;57.63;;;31.52;;
19808;SDS011;48538;32.784;-96.802;2023-05-20T12:01:37;53.55;;;30.05;;
19808;SDS011;48538;32.784;-96.802;2023-05-20T12:04:10;55.38;;;29.55;;
19808;SDS011;48538;32.784;-96.802;2023-05-20T12:06:40;57.92;;;30.55;;
19808;SDS011;48538;32.784;-96.802;2023-05-20T12:09:10;53.17;;;29.95;;
19808;SDS011;48538;32.784;-96.802;2023-05-20T12:11:38;51.80;;;30.13;;
19808;SDS011;48538;32.784;-96.802;2023-05-20T12:14:05;53.78;;;31.13;;
19808;SDS011;48538;32.784;-96.802;2023-05-20T12:16:32;52.92;;;31.10;;
19808;SDS011;48538;32.784;-96.802;2023-05-20T12:18:59;58.63;;;31.20;;
19808;SDS011;48538;32.784;-96.802;2023-05-20T12:21:29;54.85;;;32.10;;
19808;SDS011;48538;32.784;-96.802;2023-05-20T12:23:57;57.83;;;32.13;;
19808;SDS011;48538;32.784;-96.802;2023-05-20T12:26:24;56.28;;;31.83;;
19808;SDS011;48538;32.784;-96.802;2023-05-20T12:28:51;56.63;;;32.75;;
19808;SDS011;48538;32.784;-96.802;2023-05-20T12:31:18;60.75;;;34.13;;
19808;SDS011;48538;32.784;-96.802;2023-05-20T12:33:45;59.70;;;34.85;;
19808;SDS011;48538;32.784;-96.802;2023-05-20T12:36:11;62.63;;;35.90;;
19808;SDS011;48538;32.784;-96.802;2023-05-20T12:38:38;61.90;;;36.00;;
19808;SDS011;48538;32.784;-96.802;2023-05-20T12:41:04;69.93;;;38.97;;
19808;SDS011;48538;32.784;-96.802;2023-05-20T12:43:31;65.55;;;38.42;;
19808;SDS011;48538;32.784;-96.802;2023-05-20T12:45:57;70.22;;;38.90;;
19808;SDS011;48538;32.784;-96.802;2023-05-20T12:48:23;70.32;;;38.30;;
19808;SDS011;48538;32.784;-96.802;2023-05-20T12:50:50;70.60;;;38.67;;
19808;SDS011;48538;32.784;-96.802;2023-05-20T12:53:16;71.80;;;42.05;;
19808;SDS011;48538;32.784;-96.802;2023-05-20T12:55:42;72.15;;;40.53;;
19808;SDS011;48538;32.784;-96.802;2023-05-20T12:58:09;73.35;;;41.47;;
19808;SDS011;48538;32.784;-96.802;2023-05-20T13:00:35;73.25;;;41.35;;
19808;SDS011;48538;32.784;-96.802;2023-05-20T13:03:01;75.60;;;42.92;;
19808;SDS011;48538;32.784;-96.802;2023-05-20T13:05:28;80.88;;;44.03;;
19808;SDS011;48538;32.784;-96.802;2023-05-20T13:07:54;77.68;;;43.95;;
19808;SDS011;48538;32.784;-96.802;2023-05-20T13:10:20;76.68;;;42.50;;
19808;SDS011;48538;32.784;-96.802;2023-05-20T13:12:47;79.57;;;43.67;;
19808;SDS011;48538;32.784;-96.802;2023-05-20T13:15:13;83.03;;;43.75;;
19808;SDS011;48538;32.784;-96.802;2023-05-20T13:17:40;79.78;;;43.65;;
19808;SDS011;48538;32.784;-96.802;2023-05-20T13:20:07;74.53;;;42.40;;
19808;SDS011;48538;32.784;-96.802;2023-05-20T13:22:35;73.20;;;43.10;;
19808;SDS011;48538;32.784;-96.802;2023-05-20T13:25:02;73.70;;;41.80;;
19808;SDS011;48538;32.784;-96.802;2023-05-20T13:27:29;86.95;;;46.47;;
19808;SDS011;48538;32.784;-96.802;2023-05-20T13:29:55;78.35;;;45.50;;
19808;SDS011;48538;32.784;-96.802;2023-05-20T13:32:22;83.55;;;47.08;;
19808;SDS011;48538;32.784;-96.802;2023-05-20T13:34:48;79.03;;;44.42;;
19808;SDS011;48538;32.784;-96.802;2023-05-20T13:37:14;83.60;;;44.15;;
19808;SDS011;48538;32.784;-96.802;2023-05-20T13:39:40;80.40;;;45.47;;
19808;SDS011;48538;32.784;-96.802;2023-05-20T13:42:07;77.47;;;44.85;;
19808;SDS011;48538;32.784;-96.802;2023-05-20T13:44:33;76.97;;;44.35;;
19808;SDS011;48538;32.784;-96.802;2023-05-20T13:46:59;70.60;;;41.72;;
19808;SDS011;48538;32.784;-96.802;2023-05-20T13:49:26;75.32;;;41.22;;
19808;SDS011;48538;32.784;-96.802;2023-05-20T13:51:52;79.45;;;43.38;;
19808;SDS011;48538;32.784;-96.802;2023-05-20T13:54:19;79.40;;;43.72;;
19808;SDS011;48538;32.784;-96.802;2023-05-20T13:56:46;75.35;;;42.75;;
19808;SDS011;48538;32.784;-96.802;2023-05-20T13:59:12;72.88;;;43.95;;
19808;SDS011;48538;32.784;-96.802;2023-05-20T14:01:39;72.70;;;44.45;;
19808;SDS011;48538;32.784;-96.802;2023-05-20T14:04:09;75.78;;;41.42;;
19808;SDS011;48538;32.784;-96.802;2023-05-20T14:06:36;73.57;;;41.42;;
19808;SDS011;48538;32.784;-96.802;2023-05-20T14:09:04;77.28;;;41.55;;
19808;SDS011;48538;32.784;-96.802;2023-05-20T14:11:33;71.03;;;40.17;;
19808;SDS011;48538;32.784;-96.802;2023-05-20T14:13:59;72.68;;;38.67;;
19808;SDS011;48538;32.784;-96.802;2023-05-20T14:16:25;72.55;;;38.55;;
19808;SDS011;48538;32.784;-96.802;2023-05-20T14:18:52;69.72;;;37.13;;
19808;SDS011;48538;32.784;-96.802;2023-05-20T14:21:18;67.30;;;36.55;;
19808;SDS011;48538;32.784;-96.802;2023-05-20T14:23:45;66.90;;;37.35;;